sensor_id;sensor_type;location;lat;lon;timestamp;P1;durP1;ratioP1;P2;durP2;ratioP2
69621;SDS011;56841;55.964;37.674;2022-10-16T00:01:47;10.05;;;4.03;;
69621;SDS011;56841;55.964;37.674;2022-10-16T00:04:12;12.50;;;4.10;;
69621;SDS011;56841;55.964;37.674;2022-10-16T00:06:39;11.45;;;4.03;;
69621;SDS011;56841;55.964;37.674;2022-10-16T00:09:06;7.97;;;3.50;;
69621;SDS011;56841;55.964;37.674;2022-10-16T00:11:33;9.07;;;4.00;;
69621;SDS011;56841;55.964;37.674;2022-10-16T00:14:03;10.18;;;4.15;;
69621;SDS011;56841;55.964;37.674;2022-10-16T00:16:31;9.73;;;4.15;;
69621;SDS011;56841;55.964;37.674;2022-10-16T00:18:57;9.68;;;4.43;;
69621;SDS011;56841;55.964;37.674;2022-10-16T00:21:24;9.93;;;3.92;;
69621;SDS011;56841;55.964;37.674;2022-10-16T00:24:10;9.90;;;3.97;;
69621;SDS011;56841;55.964;37.674;2022-10-16T00:26:37;9.20;;;3.75;;
69621;SDS011;56841;55.964;37.674;2022-10-16T00:29:04;10.48;;;4.07;;
69621;SDS011;56841;55.964;37.674;2022-10-16T00:31:31;11.75;;;4.40;;
69621;SDS011;56841;55.964;37.674;2022-10-16T00:33:57;10.13;;;4.50;;
69621;SDS011;56841;55.964;37.674;2022-10-16T00:36:24;10.70;;;3.95;;
69621;SDS011;56841;55.964;37.674;2022-10-16T00:38:51;10.05;;;4.20;;
69621;SDS011;56841;55.964;37.674;2022-10-16T00:41:21;11.52;;;5.13;;
69621;SDS011;56841;55.964;37.674;2022-10-16T00:43:55;9.15;;;3.92;;
69621;SDS011;56841;55.964;37.674;2022-10-16T00:49:16;9.50;;;4.05;;
69621;SDS011;56841;55.964;37.674;2022-10-16T00:51:49;9.75;;;3.72;;
69621;SDS011;56841;55.964;37.674;2022-10-16T00:54:19;9.98;;;3.97;;
69621;SDS011;56841;55.964;37.674;2022-10-16T00:56:48;9.23;;;3.85;;
69621;SDS011;56841;55.964;37.674;2022-10-16T00:59:35;10.07;;;4.07;;
69621;SDS011;56841;55.964;37.674;2022-10-16T01:02:04;9.32;;;3.72;;
69621;SDS011;56841;55.964;37.674;2022-10-16T01:04:32;9.38;;;4.15;;
69621;SDS011;56841;55.964;37.674;2022-10-16T01:07:06;9.75;;;4.10;;
69621;SDS011;56841;55.964;37.674;2022-10-16T01:12:59;9.98;;;4.18;;
69621;SDS011;56841;55.964;37.674;2022-10-16T01:17:39;11.02;;;4.10;;
69621;SDS011;56841;55.964;37.674;2022-10-16T01:26:01;10.95;;;4.60;;
69621;SDS011;56841;55.964;37.674;2022-10-16T01:28:42;11.02;;;4.18;;
69621;SDS011;56841;55.964;37.674;2022-10-16T01:31:18;10.27;;;4.53;;
69621;SDS011;56841;55.964;37.674;2022-10-16T01:33:47;14.73;;;4.45;;
69621;SDS011;56841;55.964;37.674;2022-10-16T01:36:24;11.35;;;4.63;;
69621;SDS011;56841;55.964;37.674;2022-10-16T01:38:56;11.43;;;4.13;;
69621;SDS011;56841;55.964;37.674;2022-10-16T01:41:29;11.98;;;4.00;;
69621;SDS011;56841;55.964;37.674;2022-10-16T01:44:06;13.55;;;4.82;;
69621;SDS011;56841;55.964;37.674;2022-10-16T01:46:53;12.93;;;4.70;;
69621;SDS011;56841;55.964;37.674;2022-10-16T01:49:21;12.23;;;4.47;;
69621;SDS011;56841;55.964;37.674;2022-10-16T01:51:50;14.82;;;5.10;;
69621;SDS011;56841;55.964;37.674;2022-10-16T01:54:20;13.45;;;5.10;;
69621;SDS011;56841;55.964;37.674;2022-10-16T01:56:51;10.13;;;4.80;;
69621;SDS011;56841;55.964;37.674;2022-10-16T01:59:18;12.00;;;4.65;;
69621;SDS011;56841;55.964;37.674;2022-10-16T02:01:56;11.60;;;4.97;;
69621;SDS011;56841;55.964;37.674;2022-10-16T02:04:28;12.00;;;4.80;;
69621;SDS011;56841;55.964;37.674;2022-10-16T02:06:57;11.00;;;4.65;;
69621;SDS011;56841;55.964;37.674;2022-10-16T02:09:24;12.15;;;5.22;;
69621;SDS011;56841;55.964;37.674;2022-10-16T02:11:50;11.45;;;4.75;;
69621;SDS011;56841;55.964;37.674;2022-10-16T02:14:20;13.95;;;4.70;;
69621;SDS011;56841;55.964;37.674;2022-10-16T02:16:50;12.68;;;4.97;;
69621;SDS011;56841;55.964;37.674;2022-10-16T02:19:17;15.40;;;5.25;;
69621;SDS011;56841;55.964;37.674;2022-10-16T02:22:20;12.43;;;4.75;;
69621;SDS011;56841;55.964;37.674;2022-10-16T02:27:16;14.05;;;5.00;;
69621;SDS011;56841;55.964;37.674;2022-10-16T02:32:50;11.43;;;4.38;;
69621;SDS011;56841;55.964;37.674;2022-10-16T02:35:19;8.93;;;4.05;;
69621;SDS011;56841;55.964;37.674;2022-10-16T02:37:46;12.60;;;4.47;;
69621;SDS011;56841;55.964;37.674;2022-10-16T02:40:14;12.02;;;4.35;;
69621;SDS011;56841;55.964;37.674;2022-10-16T02:42:41;12.35;;;4.43;;
69621;SDS011;56841;55.964;37.674;2022-10-16T02:45:07;14.93;;;4.70;;
69621;SDS011;56841;55.964;37.674;2022-10-16T02:47:34;13.30;;;4.75;;
69621;SDS011;56841;55.964;37.674;2022-10-16T02:50:00;11.40;;;4.55;;
69621;SDS011;56841;55.964;37.674;2022-10-16T02:52:26;14.15;;;4.38;;
69621;SDS011;56841;55.964;37.674;2022-10-16T02:54:52;9.88;;;3.90;;
69621;SDS011;56841;55.964;37.674;2022-10-16T02:57:18;14.85;;;4.60;;
69621;SDS011;56841;55.964;37.674;2022-10-16T02:59:44;10.88;;;4.50;;
69621;SDS011;56841;55.964;37.674;2022-10-16T03:02:10;11.10;;;3.95;;
69621;SDS011;56841;55.964;37.674;2022-10-16T03:04:36;11.57;;;4.70;;
69621;SDS011;56841;55.964;37.674;2022-10-16T03:07:03;11.30;;;4.70;;
69621;SDS011;56841;55.964;37.674;2022-10-16T03:09:29;11.07;;;4.40;;
69621;SDS011;56841;55.964;37.674;2022-10-16T03:11:55;8.63;;;4.00;;
69621;SDS011;56841;55.964;37.674;2022-10-16T03:14:21;11.57;;;4.65;;
69621;SDS011;56841;55.964;37.674;2022-10-16T03:16:47;9.70;;;3.72;;
69621;SDS011;56841;55.964;37.674;2022-10-16T03:19:12;9.48;;;3.80;;
69621;SDS011;56841;55.964;37.674;2022-10-16T03:21:38;12.70;;;4.05;;
69621;SDS011;56841;55.964;37.674;2022-10-16T03:24:04;12.60;;;4.60;;
69621;SDS011;56841;55.964;37.674;2022-10-16T03:26:30;8.18;;;3.17;;
69621;SDS011;56841;55.964;37.674;2022-10-16T03:28:56;11.43;;;4.38;;
69621;SDS011;56841;55.964;37.674;2022-10-16T03:31:22;12.32;;;4.00;;
69621;SDS011;56841;55.964;37.674;2022-10-16T03:33:48;14.20;;;3.97;;
69621;SDS011;56841;55.964;37.674;2022-10-16T03:36:13;11.07;;;4.35;;
69621;SDS011;56841;55.964;37.674;2022-10-16T03:38:39;10.57;;;3.38;;
69621;SDS011;56841;55.964;37.674;2022-10-16T03:41:05;13.02;;;3.92;;
69621;SDS011;56841;55.964;37.674;2022-10-16T03:43:33;9.60;;;3.67;;
69621;SDS011;56841;55.964;37.674;2022-10-16T03:45:59;11.02;;;4.13;;
69621;SDS011;56841;55.964;37.674;2022-10-16T03:48:24;11.60;;;3.75;;
69621;SDS011;56841;55.964;37.674;2022-10-16T03:50:50;13.57;;;4.00;;
69621;SDS011;56841;55.964;37.674;2022-10-16T03:53:17;7.38;;;2.67;;
69621;SDS011;56841;55.964;37.674;2022-10-16T03:55:43;10.95;;;3.45;;
69621;SDS011;56841;55.964;37.674;2022-10-16T03:58:09;9.23;;;2.70;;
69621;SDS011;56841;55.964;37.674;2022-10-16T04:00:35;11.68;;;3.90;;
69621;SDS011;56841;55.964;37.674;2022-10-16T04:03:01;11.55;;;4.40;;
69621;SDS011;56841;55.964;37.674;2022-10-16T04:05:27;9.40;;;3.53;;
69621;SDS011;56841;55.964;37.674;2022-10-16T04:07:52;11.32;;;3.63;;
69621;SDS011;56841;55.964;37.674;2022-10-16T04:10:18;8.80;;;3.00;;
69621;SDS011;56841;55.964;37.674;2022-10-16T04:12:44;8.18;;;3.67;;
69621;SDS011;56841;55.964;37.674;2022-10-16T04:15:10;7.75;;;3.47;;
69621;SDS011;56841;55.964;37.674;2022-10-16T04:17:36;11.15;;;4.13;;
69621;SDS011;56841;55.964;37.674;2022-10-16T04:20:02;8.65;;;3.92;;
69621;SDS011;56841;55.964;37.674;2022-10-16T04:22:28;8.77;;;2.88;;
69621;SDS011;56841;55.964;37.674;2022-10-16T04:24:56;9.80;;;3.90;;
69621;SDS011;56841;55.964;37.674;2022-10-16T04:27:21;13.68;;;4.30;;
69621;SDS011;56841;55.964;37.674;2022-10-16T04:29:47;13.10;;;4.20;;
69621;SDS011;56841;55.964;37.674;2022-10-16T04:32:13;11.18;;;4.30;;
69621;SDS011;56841;55.964;37.674;2022-10-16T04:34:39;15.55;;;4.22;;
69621;SDS011;56841;55.964;37.674;2022-10-16T04:37:05;13.27;;;4.20;;
69621;SDS011;56841;55.964;37.674;2022-10-16T04:39:31;8.35;;;3.15;;
69621;SDS011;56841;55.964;37.674;2022-10-16T04:41:57;13.95;;;4.50;;
69621;SDS011;56841;55.964;37.674;2022-10-16T04:44:24;14.45;;;4.97;;
69621;SDS011;56841;55.964;37.674;2022-10-16T04:46:50;12.70;;;3.63;;
69621;SDS011;56841;55.964;37.674;2022-10-16T04:49:16;12.85;;;3.72;;
69621;SDS011;56841;55.964;37.674;2022-10-16T04:51:42;12.07;;;4.40;;
69621;SDS011;56841;55.964;37.674;2022-10-16T04:54:08;10.07;;;4.07;;
69621;SDS011;56841;55.964;37.674;2022-10-16T04:56:35;14.23;;;5.60;;
69621;SDS011;56841;55.964;37.674;2022-10-16T04:59:08;15.07;;;5.38;;
69621;SDS011;56841;55.964;37.674;2022-10-16T05:01:34;15.30;;;5.15;;
69621;SDS011;56841;55.964;37.674;2022-10-16T05:04:00;11.13;;;3.58;;
69621;SDS011;56841;55.964;37.674;2022-10-16T05:06:26;13.68;;;4.88;;
69621;SDS011;56841;55.964;37.674;2022-10-16T05:08:52;12.35;;;5.60;;
69621;SDS011;56841;55.964;37.674;2022-10-16T05:11:18;14.30;;;5.10;;
69621;SDS011;56841;55.964;37.674;2022-10-16T05:13:45;12.82;;;5.38;;
69621;SDS011;56841;55.964;37.674;2022-10-16T05:16:10;13.77;;;5.55;;
69621;SDS011;56841;55.964;37.674;2022-10-16T05:18:36;11.40;;;5.03;;
69621;SDS011;56841;55.964;37.674;2022-10-16T05:21:02;14.27;;;4.72;;
69621;SDS011;56841;55.964;37.674;2022-10-16T05:23:28;11.52;;;5.30;;
69621;SDS011;56841;55.964;37.674;2022-10-16T05:25:57;14.93;;;5.05;;
69621;SDS011;56841;55.964;37.674;2022-10-16T05:28:24;13.73;;;5.63;;
69621;SDS011;56841;55.964;37.674;2022-10-16T05:30:50;7.53;;;3.47;;
69621;SDS011;56841;55.964;37.674;2022-10-16T05:33:16;18.65;;;6.43;;
69621;SDS011;56841;55.964;37.674;2022-10-16T05:35:42;7.95;;;3.90;;
69621;SDS011;56841;55.964;37.674;2022-10-16T05:38:09;10.98;;;5.07;;
69621;SDS011;56841;55.964;37.674;2022-10-16T05:40:34;19.73;;;6.28;;
69621;SDS011;56841;55.964;37.674;2022-10-16T05:43:00;17.92;;;5.97;;
69621;SDS011;56841;55.964;37.674;2022-10-16T05:45:26;17.40;;;5.47;;
69621;SDS011;56841;55.964;37.674;2022-10-16T05:47:52;13.00;;;4.45;;
69621;SDS011;56841;55.964;37.674;2022-10-16T05:50:18;14.05;;;5.15;;
69621;SDS011;56841;55.964;37.674;2022-10-16T05:52:44;10.38;;;4.80;;
69621;SDS011;56841;55.964;37.674;2022-10-16T05:55:10;11.75;;;4.30;;
69621;SDS011;56841;55.964;37.674;2022-10-16T05:57:35;15.60;;;5.35;;
69621;SDS011;56841;55.964;37.674;2022-10-16T06:00:02;17.73;;;5.60;;
69621;SDS011;56841;55.964;37.674;2022-10-16T06:02:38;12.20;;;4.90;;
69621;SDS011;56841;55.964;37.674;2022-10-16T06:05:04;17.70;;;5.53;;
69621;SDS011;56841;55.964;37.674;2022-10-16T06:07:33;15.77;;;5.07;;
69621;SDS011;56841;55.964;37.674;2022-10-16T06:10:00;16.45;;;4.75;;
69621;SDS011;56841;55.964;37.674;2022-10-16T06:12:26;9.75;;;3.97;;
69621;SDS011;56841;55.964;37.674;2022-10-16T06:14:52;9.60;;;3.63;;
69621;SDS011;56841;55.964;37.674;2022-10-16T06:17:18;6.53;;;2.65;;
69621;SDS011;56841;55.964;37.674;2022-10-16T06:19:43;11.05;;;4.15;;
69621;SDS011;56841;55.964;37.674;2022-10-16T06:22:09;16.30;;;5.50;;
69621;SDS011;56841;55.964;37.674;2022-10-16T06:24:35;7.82;;;2.47;;
69621;SDS011;56841;55.964;37.674;2022-10-16T06:27:01;12.20;;;4.80;;
69621;SDS011;56841;55.964;37.674;2022-10-16T06:29:28;7.28;;;3.13;;
69621;SDS011;56841;55.964;37.674;2022-10-16T06:31:54;5.88;;;2.92;;
69621;SDS011;56841;55.964;37.674;2022-10-16T06:34:20;13.27;;;4.57;;
69621;SDS011;56841;55.964;37.674;2022-10-16T06:36:45;9.05;;;3.83;;
69621;SDS011;56841;55.964;37.674;2022-10-16T06:39:11;9.88;;;4.10;;
69621;SDS011;56841;55.964;37.674;2022-10-16T06:41:37;10.18;;;4.10;;
69621;SDS011;56841;55.964;37.674;2022-10-16T06:44:14;8.27;;;3.40;;
69621;SDS011;56841;55.964;37.674;2022-10-16T06:46:40;12.73;;;4.95;;
69621;SDS011;56841;55.964;37.674;2022-10-16T06:49:06;9.65;;;4.50;;
69621;SDS011;56841;55.964;37.674;2022-10-16T06:51:31;8.10;;;3.20;;
69621;SDS011;56841;55.964;37.674;2022-10-16T06:53:59;7.93;;;3.63;;
69621;SDS011;56841;55.964;37.674;2022-10-16T06:56:26;10.88;;;4.45;;
69621;SDS011;56841;55.964;37.674;2022-10-16T06:58:53;18.08;;;4.90;;
69621;SDS011;56841;55.964;37.674;2022-10-16T07:01:20;12.70;;;4.60;;
69621;SDS011;56841;55.964;37.674;2022-10-16T07:03:49;10.27;;;3.97;;
69621;SDS011;56841;55.964;37.674;2022-10-16T07:06:16;15.38;;;4.80;;
69621;SDS011;56841;55.964;37.674;2022-10-16T07:08:44;13.93;;;4.30;;
69621;SDS011;56841;55.964;37.674;2022-10-16T07:11:12;10.70;;;4.57;;
69621;SDS011;56841;55.964;37.674;2022-10-16T07:13:43;11.52;;;4.40;;
69621;SDS011;56841;55.964;37.674;2022-10-16T07:16:14;9.82;;;4.10;;
69621;SDS011;56841;55.964;37.674;2022-10-16T07:18:41;12.50;;;4.35;;
69621;SDS011;56841;55.964;37.674;2022-10-16T07:21:12;12.07;;;4.00;;
69621;SDS011;56841;55.964;37.674;2022-10-16T07:23:40;7.10;;;3.25;;
69621;SDS011;56841;55.964;37.674;2022-10-16T07:26:06;8.45;;;3.75;;
69621;SDS011;56841;55.964;37.674;2022-10-16T07:28:33;10.35;;;3.80;;
69621;SDS011;56841;55.964;37.674;2022-10-16T07:31:06;14.82;;;3.58;;
69621;SDS011;56841;55.964;37.674;2022-10-16T07:33:36;11.57;;;3.63;;
69621;SDS011;56841;55.964;37.674;2022-10-16T07:36:03;8.40;;;3.47;;
69621;SDS011;56841;55.964;37.674;2022-10-16T07:38:30;7.32;;;2.70;;
69621;SDS011;56841;55.964;37.674;2022-10-16T07:40:57;10.80;;;3.90;;
69621;SDS011;56841;55.964;37.674;2022-10-16T07:43:24;7.22;;;2.67;;
69621;SDS011;56841;55.964;37.674;2022-10-16T07:45:51;8.00;;;3.10;;
69621;SDS011;56841;55.964;37.674;2022-10-16T07:48:17;9.07;;;3.85;;
69621;SDS011;56841;55.964;37.674;2022-10-16T07:50:44;9.32;;;3.58;;
69621;SDS011;56841;55.964;37.674;2022-10-16T07:53:11;8.25;;;3.38;;
69621;SDS011;56841;55.964;37.674;2022-10-16T07:55:37;7.60;;;3.50;;
69621;SDS011;56841;55.964;37.674;2022-10-16T07:58:03;6.35;;;2.75;;
69621;SDS011;56841;55.964;37.674;2022-10-16T08:00:29;7.15;;;2.95;;
69621;SDS011;56841;55.964;37.674;2022-10-16T08:02:56;7.55;;;2.75;;
69621;SDS011;56841;55.964;37.674;2022-10-16T08:05:28;14.27;;;3.83;;
69621;SDS011;56841;55.964;37.674;2022-10-16T08:07:55;6.22;;;2.60;;
69621;SDS011;56841;55.964;37.674;2022-10-16T08:10:23;10.20;;;3.42;;
69621;SDS011;56841;55.964;37.674;2022-10-16T08:12:51;8.38;;;2.63;;
69621;SDS011;56841;55.964;37.674;2022-10-16T08:15:17;7.45;;;3.15;;
69621;SDS011;56841;55.964;37.674;2022-10-16T08:17:44;6.85;;;2.88;;
69621;SDS011;56841;55.964;37.674;2022-10-16T08:20:10;9.00;;;3.45;;
69621;SDS011;56841;55.964;37.674;2022-10-16T08:22:37;10.43;;;4.07;;
69621;SDS011;56841;55.964;37.674;2022-10-16T08:25:03;6.30;;;3.20;;
69621;SDS011;56841;55.964;37.674;2022-10-16T08:27:32;7.40;;;2.78;;
69621;SDS011;56841;55.964;37.674;2022-10-16T08:29:59;6.68;;;3.33;;
69621;SDS011;56841;55.964;37.674;2022-10-16T08:32:26;6.70;;;3.22;;
69621;SDS011;56841;55.964;37.674;2022-10-16T08:34:51;6.70;;;2.45;;
69621;SDS011;56841;55.964;37.674;2022-10-16T08:37:17;8.50;;;3.33;;
69621;SDS011;56841;55.964;37.674;2022-10-16T08:39:43;9.85;;;3.42;;
69621;SDS011;56841;55.964;37.674;2022-10-16T08:50:51;5.13;;;2.25;;
69621;SDS011;56841;55.964;37.674;2022-10-16T08:53:20;9.23;;;3.05;;
69621;SDS011;56841;55.964;37.674;2022-10-16T08:55:54;5.68;;;2.67;;
69621;SDS011;56841;55.964;37.674;2022-10-16T08:58:25;5.80;;;2.47;;
69621;SDS011;56841;55.964;37.674;2022-10-16T09:00:54;7.88;;;2.65;;
69621;SDS011;56841;55.964;37.674;2022-10-16T09:20:53;8.82;;;2.17;;
69621;SDS011;56841;55.964;37.674;2022-10-16T09:23:17;4.80;;;2.40;;
69621;SDS011;56841;55.964;37.674;2022-10-16T09:25:45;5.45;;;2.20;;
69621;SDS011;56841;55.964;37.674;2022-10-16T09:28:13;6.22;;;2.38;;
69621;SDS011;56841;55.964;37.674;2022-10-16T09:30:39;5.75;;;2.53;;
69621;SDS011;56841;55.964;37.674;2022-10-16T09:33:05;7.53;;;2.92;;
69621;SDS011;56841;55.964;37.674;2022-10-16T09:35:40;6.18;;;2.55;;
69621;SDS011;56841;55.964;37.674;2022-10-16T09:38:08;6.25;;;2.75;;
69621;SDS011;56841;55.964;37.674;2022-10-16T09:40:46;6.47;;;2.55;;
69621;SDS011;56841;55.964;37.674;2022-10-16T09:46:27;6.68;;;2.47;;
69621;SDS011;56841;55.964;37.674;2022-10-16T09:48:58;8.05;;;2.63;;
69621;SDS011;56841;55.964;37.674;2022-10-16T09:51:33;8.07;;;2.85;;
69621;SDS011;56841;55.964;37.674;2022-10-16T09:56:36;6.85;;;2.72;;
69621;SDS011;56841;55.964;37.674;2022-10-16T09:59:14;7.63;;;2.60;;
69621;SDS011;56841;55.964;37.674;2022-10-16T10:04:11;8.30;;;3.17;;
69621;SDS011;56841;55.964;37.674;2022-10-16T10:09:17;11.82;;;2.70;;
69621;SDS011;56841;55.964;37.674;2022-10-16T10:12:16;4.45;;;2.28;;
69621;SDS011;56841;55.964;37.674;2022-10-16T10:14:49;5.57;;;2.63;;
69621;SDS011;56841;55.964;37.674;2022-10-16T10:17:24;7.88;;;2.70;;
69621;SDS011;56841;55.964;37.674;2022-10-16T10:20:15;10.10;;;2.75;;
69621;SDS011;56841;55.964;37.674;2022-10-16T10:22:43;7.72;;;2.47;;
69621;SDS011;56841;55.964;37.674;2022-10-16T10:47:26;5.22;;;2.03;;
69621;SDS011;56841;55.964;37.674;2022-10-16T10:55:30;5.07;;;1.80;;
69621;SDS011;56841;55.964;37.674;2022-10-16T11:05:54;5.25;;;2.38;;
69621;SDS011;56841;55.964;37.674;2022-10-16T11:08:35;6.15;;;2.45;;
69621;SDS011;56841;55.964;37.674;2022-10-16T11:14:03;5.40;;;2.50;;
69621;SDS011;56841;55.964;37.674;2022-10-16T11:16:32;8.77;;;2.55;;
69621;SDS011;56841;55.964;37.674;2022-10-16T11:19:11;4.50;;;2.15;;
69621;SDS011;56841;55.964;37.674;2022-10-16T11:22:11;6.82;;;2.35;;
69621;SDS011;56841;55.964;37.674;2022-10-16T11:27:19;7.10;;;2.20;;
69621;SDS011;56841;55.964;37.674;2022-10-16T11:32:27;6.57;;;2.40;;
69621;SDS011;56841;55.964;37.674;2022-10-16T11:35:00;7.95;;;1.90;;
69621;SDS011;56841;55.964;37.674;2022-10-16T11:37:38;5.05;;;2.33;;
69621;SDS011;56841;55.964;37.674;2022-10-16T11:40:16;6.75;;;2.42;;
69621;SDS011;56841;55.964;37.674;2022-10-16T11:42:55;5.65;;;2.38;;
69621;SDS011;56841;55.964;37.674;2022-10-16T11:45:40;8.05;;;3.17;;
69621;SDS011;56841;55.964;37.674;2022-10-16T11:50:56;8.48;;;2.63;;
69621;SDS011;56841;55.964;37.674;2022-10-16T11:53:45;10.50;;;2.50;;
69621;SDS011;56841;55.964;37.674;2022-10-16T11:56:18;13.32;;;2.60;;
69621;SDS011;56841;55.964;37.674;2022-10-16T12:06:34;6.93;;;3.35;;
69621;SDS011;56841;55.964;37.674;2022-10-16T12:09:09;9.00;;;2.95;;
69621;SDS011;56841;55.964;37.674;2022-10-16T12:11:41;13.95;;;3.00;;
69621;SDS011;56841;55.964;37.674;2022-10-16T12:14:17;13.18;;;2.95;;
69621;SDS011;56841;55.964;37.674;2022-10-16T12:19:59;6.95;;;2.65;;
69621;SDS011;56841;55.964;37.674;2022-10-16T12:22:41;8.63;;;2.70;;
69621;SDS011;56841;55.964;37.674;2022-10-16T12:25:21;7.75;;;2.65;;
69621;SDS011;56841;55.964;37.674;2022-10-16T12:27:55;6.22;;;1.98;;
69621;SDS011;56841;55.964;37.674;2022-10-16T12:30:27;8.48;;;3.08;;
69621;SDS011;56841;55.964;37.674;2022-10-16T12:33:00;8.30;;;2.80;;
69621;SDS011;56841;55.964;37.674;2022-10-16T12:35:35;12.02;;;3.47;;
69621;SDS011;56841;55.964;37.674;2022-10-16T12:40:42;6.65;;;2.65;;
69621;SDS011;56841;55.964;37.674;2022-10-16T12:43:13;8.43;;;3.03;;
69621;SDS011;56841;55.964;37.674;2022-10-16T12:46:51;8.48;;;2.95;;
69621;SDS011;56841;55.964;37.674;2022-10-16T12:49:06;8.13;;;2.40;;
69621;SDS011;56841;55.964;37.674;2022-10-16T12:51:42;6.97;;;2.63;;
69621;SDS011;56841;55.964;37.674;2022-10-16T13:04:50;7.80;;;2.75;;
69621;SDS011;56841;55.964;37.674;2022-10-16T13:16:40;8.63;;;2.90;;
69621;SDS011;56841;55.964;37.674;2022-10-16T13:19:44;5.70;;;2.13;;
69621;SDS011;56841;55.964;37.674;2022-10-16T13:22:28;5.88;;;2.25;;
69621;SDS011;56841;55.964;37.674;2022-10-16T13:25:03;9.98;;;2.35;;
69621;SDS011;56841;55.964;37.674;2022-10-16T13:30:21;7.13;;;2.70;;
69621;SDS011;56841;55.964;37.674;2022-10-16T13:32:50;6.45;;;2.50;;
69621;SDS011;56841;55.964;37.674;2022-10-16T13:35:24;6.93;;;2.58;;
69621;SDS011;56841;55.964;37.674;2022-10-16T13:38:15;7.30;;;3.03;;
69621;SDS011;56841;55.964;37.674;2022-10-16T13:40:49;7.60;;;2.92;;
69621;SDS011;56841;55.964;37.674;2022-10-16T13:43:16;8.07;;;3.30;;
69621;SDS011;56841;55.964;37.674;2022-10-16T13:45:52;7.75;;;3.50;;
69621;SDS011;56841;55.964;37.674;2022-10-16T13:48:22;7.57;;;3.35;;
69621;SDS011;56841;55.964;37.674;2022-10-16T13:50:57;7.93;;;2.42;;
69621;SDS011;56841;55.964;37.674;2022-10-16T13:53:43;8.93;;;3.65;;
69621;SDS011;56841;55.964;37.674;2022-10-16T13:56:17;8.43;;;2.92;;
69621;SDS011;56841;55.964;37.674;2022-10-16T13:58:45;7.47;;;2.75;;
69621;SDS011;56841;55.964;37.674;2022-10-16T14:01:25;10.93;;;2.90;;
69621;SDS011;56841;55.964;37.674;2022-10-16T14:04:13;8.73;;;3.88;;
69621;SDS011;56841;55.964;37.674;2022-10-16T14:06:40;10.52;;;2.90;;
69621;SDS011;56841;55.964;37.674;2022-10-16T14:09:14;6.72;;;2.40;;
69621;SDS011;56841;55.964;37.674;2022-10-16T14:11:50;8.48;;;2.90;;
69621;SDS011;56841;55.964;37.674;2022-10-16T14:14:22;9.38;;;2.95;;
69621;SDS011;56841;55.964;37.674;2022-10-16T14:16:49;12.80;;;3.00;;
69621;SDS011;56841;55.964;37.674;2022-10-16T14:19:20;11.63;;;2.90;;
69621;SDS011;56841;55.964;37.674;2022-10-16T14:21:52;7.55;;;3.25;;
69621;SDS011;56841;55.964;37.674;2022-10-16T14:26:56;12.57;;;3.25;;
69621;SDS011;56841;55.964;37.674;2022-10-16T14:29:23;11.90;;;3.30;;
69621;SDS011;56841;55.964;37.674;2022-10-16T14:31:57;12.50;;;3.72;;
69621;SDS011;56841;55.964;37.674;2022-10-16T14:34:32;7.50;;;3.13;;
69621;SDS011;56841;55.964;37.674;2022-10-16T14:37:01;10.60;;;4.15;;
69621;SDS011;56841;55.964;37.674;2022-10-16T14:39:33;7.90;;;3.40;;
69621;SDS011;56841;55.964;37.674;2022-10-16T14:41:59;8.95;;;3.38;;
69621;SDS011;56841;55.964;37.674;2022-10-16T14:44:29;8.60;;;3.17;;
69621;SDS011;56841;55.964;37.674;2022-10-16T14:46:58;12.68;;;4.38;;
69621;SDS011;56841;55.964;37.674;2022-10-16T14:49:33;7.57;;;3.05;;
69621;SDS011;56841;55.964;37.674;2022-10-16T14:51:59;9.63;;;3.25;;
69621;SDS011;56841;55.964;37.674;2022-10-16T14:54:24;7.00;;;2.47;;
69621;SDS011;56841;55.964;37.674;2022-10-16T14:56:54;8.85;;;3.00;;
69621;SDS011;56841;55.964;37.674;2022-10-16T14:59:28;7.43;;;2.97;;
69621;SDS011;56841;55.964;37.674;2022-10-16T15:02:23;6.93;;;2.95;;
69621;SDS011;56841;55.964;37.674;2022-10-16T15:04:53;7.82;;;2.80;;
69621;SDS011;56841;55.964;37.674;2022-10-16T15:07:20;7.88;;;2.92;;
69621;SDS011;56841;55.964;37.674;2022-10-16T15:09:46;8.13;;;3.15;;
69621;SDS011;56841;55.964;37.674;2022-10-16T15:12:12;8.02;;;3.53;;
69621;SDS011;56841;55.964;37.674;2022-10-16T15:14:38;9.50;;;3.25;;
69621;SDS011;56841;55.964;37.674;2022-10-16T15:17:03;9.20;;;2.63;;
69621;SDS011;56841;55.964;37.674;2022-10-16T15:19:30;6.55;;;3.00;;
69621;SDS011;56841;55.964;37.674;2022-10-16T15:21:56;8.90;;;4.07;;
69621;SDS011;56841;55.964;37.674;2022-10-16T15:24:22;10.55;;;3.45;;
69621;SDS011;56841;55.964;37.674;2022-10-16T15:26:48;10.82;;;2.70;;
69621;SDS011;56841;55.964;37.674;2022-10-16T15:29:16;12.02;;;3.70;;
69621;SDS011;56841;55.964;37.674;2022-10-16T15:31:42;11.45;;;3.30;;
69621;SDS011;56841;55.964;37.674;2022-10-16T15:34:08;6.32;;;2.47;;
69621;SDS011;56841;55.964;37.674;2022-10-16T15:36:36;9.52;;;3.53;;
69621;SDS011;56841;55.964;37.674;2022-10-16T15:39:21;10.95;;;4.22;;
69621;SDS011;56841;55.964;37.674;2022-10-16T15:41:47;14.85;;;4.28;;
69621;SDS011;56841;55.964;37.674;2022-10-16T15:44:16;16.13;;;2.58;;
69621;SDS011;56841;55.964;37.674;2022-10-16T15:46:42;11.02;;;4.10;;
69621;SDS011;56841;55.964;37.674;2022-10-16T15:49:08;7.68;;;3.13;;
69621;SDS011;56841;55.964;37.674;2022-10-16T15:51:37;8.98;;;3.50;;
69621;SDS011;56841;55.964;37.674;2022-10-16T15:54:04;9.65;;;3.83;;
69621;SDS011;56841;55.964;37.674;2022-10-16T15:56:29;11.93;;;3.40;;
69621;SDS011;56841;55.964;37.674;2022-10-16T15:58:58;5.95;;;2.70;;
69621;SDS011;56841;55.964;37.674;2022-10-16T16:01:25;10.27;;;3.45;;
69621;SDS011;56841;55.964;37.674;2022-10-16T16:03:52;8.07;;;3.35;;
69621;SDS011;56841;55.964;37.674;2022-10-16T16:06:19;7.30;;;3.45;;
69621;SDS011;56841;55.964;37.674;2022-10-16T16:08:45;8.05;;;3.45;;
69621;SDS011;56841;55.964;37.674;2022-10-16T16:11:14;7.45;;;3.00;;
69621;SDS011;56841;55.964;37.674;2022-10-16T16:13:42;9.65;;;3.13;;
69621;SDS011;56841;55.964;37.674;2022-10-16T16:16:09;7.32;;;3.15;;
69621;SDS011;56841;55.964;37.674;2022-10-16T16:18:39;11.38;;;3.08;;
69621;SDS011;56841;55.964;37.674;2022-10-16T16:21:06;11.20;;;3.20;;
69621;SDS011;56841;55.964;37.674;2022-10-16T16:23:32;8.20;;;2.83;;
69621;SDS011;56841;55.964;37.674;2022-10-16T16:26:06;10.88;;;3.00;;
69621;SDS011;56841;55.964;37.674;2022-10-16T16:28:35;7.15;;;3.22;;
69621;SDS011;56841;55.964;37.674;2022-10-16T16:31:01;9.00;;;3.15;;
69621;SDS011;56841;55.964;37.674;2022-10-16T16:33:27;7.32;;;2.70;;
69621;SDS011;56841;55.964;37.674;2022-10-16T16:36:00;6.40;;;2.55;;
69621;SDS011;56841;55.964;37.674;2022-10-16T16:38:27;6.55;;;2.78;;
69621;SDS011;56841;55.964;37.674;2022-10-16T16:40:54;7.40;;;2.28;;
69621;SDS011;56841;55.964;37.674;2022-10-16T16:43:26;6.10;;;2.42;;
69621;SDS011;56841;55.964;37.674;2022-10-16T16:45:53;6.82;;;2.35;;
69621;SDS011;56841;55.964;37.674;2022-10-16T16:48:19;6.65;;;2.60;;
69621;SDS011;56841;55.964;37.674;2022-10-16T16:50:46;8.43;;;3.13;;
69621;SDS011;56841;55.964;37.674;2022-10-16T16:53:12;9.20;;;2.92;;
69621;SDS011;56841;55.964;37.674;2022-10-16T16:55:38;6.43;;;2.95;;
69621;SDS011;56841;55.964;37.674;2022-10-16T16:58:04;6.88;;;2.55;;
69621;SDS011;56841;55.964;37.674;2022-10-16T17:00:30;10.00;;;2.83;;
69621;SDS011;56841;55.964;37.674;2022-10-16T17:02:57;7.65;;;2.95;;
69621;SDS011;56841;55.964;37.674;2022-10-16T17:05:23;7.68;;;2.75;;